sensor_id;sensor_type;location;lat;lon;timestamp;temperature;humidity
69628;DHT22;56850;51.984;5.088;2023-02-28T00:01:22;5.60;59.20
69628;DHT22;56850;51.984;5.088;2023-02-28T00:03:49;5.60;59.30
69628;DHT22;56850;51.984;5.088;2023-02-28T00:06:16;5.50;59.40
69628;DHT22;56850;51.984;5.088;2023-02-28T00:08:43;5.50;59.50
69628;DHT22;56850;51.984;5.088;2023-02-28T00:11:12;5.50;59.60
69628;DHT22;56850;51.984;5.088;2023-02-28T00:13:44;5.40;59.60
69628;DHT22;56850;51.984;5.088;2023-02-28T00:16:18;5.40;59.70
69628;DHT22;56850;51.984;5.088;2023-02-28T00:18:45;5.40;59.90
69628;DHT22;56850;51.984;5.088;2023-02-28T00:21:14;5.40;59.90
69628;DHT22;56850;51.984;5.088;2023-02-28T00:23:42;5.40;59.90
69628;DHT22;56850;51.984;5.088;2023-02-28T00:26:09;5.40;59.90
69628;DHT22;56850;51.984;5.088;2023-02-28T00:28:36;5.40;59.90
69628;DHT22;56850;51.984;5.088;2023-02-28T00:31:03;5.40;60.00
69628;DHT22;56850;51.984;5.088;2023-02-28T00:33:30;5.40;60.10
69628;DHT22;56850;51.984;5.088;2023-02-28T00:36:07;5.40;60.10
69628;DHT22;56850;51.984;5.088;2023-02-28T00:38:36;5.40;60.20
69628;DHT22;56850;51.984;5.088;2023-02-28T00:41:03;5.30;60.20
69628;DHT22;56850;51.984;5.088;2023-02-28T00:43:36;5.30;60.30
69628;DHT22;56850;51.984;5.088;2023-02-28T00:46:04;5.30;60.40
69628;DHT22;56850;51.984;5.088;2023-02-28T00:48:31;5.40;60.50
69628;DHT22;56850;51.984;5.088;2023-02-28T00:51:01;5.40;60.50
69628;DHT22;56850;51.984;5.088;2023-02-28T00:53:29;5.40;60.50
69628;DHT22;56850;51.984;5.088;2023-02-28T00:55:56;5.40;60.50
69628;DHT22;56850;51.984;5.088;2023-02-28T00:58:25;5.40;60.70
69628;DHT22;56850;51.984;5.088;2023-02-28T01:00:53;5.40;60.70
69628;DHT22;56850;51.984;5.088;2023-02-28T01:03:21;5.40;60.80
69628;DHT22;56850;51.984;5.088;2023-02-28T01:05:49;5.40;60.80
69628;DHT22;56850;51.984;5.088;2023-02-28T01:08:16;5.50;60.90
69628;DHT22;56850;51.984;5.088;2023-02-28T01:10:43;5.50;60.90
69628;DHT22;56850;51.984;5.088;2023-02-28T01:13:11;5.50;60.80
69628;DHT22;56850;51.984;5.088;2023-02-28T01:15:41;5.40;60.90
69628;DHT22;56850;51.984;5.088;2023-02-28T01:18:10;5.50;61.00
69628;DHT22;56850;51.984;5.088;2023-02-28T01:20:37;5.40;61.10
69628;DHT22;56850;51.984;5.088;2023-02-28T01:23:04;5.50;61.10
69628;DHT22;56850;51.984;5.088;2023-02-28T01:25:36;5.50;61.30
69628;DHT22;56850;51.984;5.088;2023-02-28T01:28:04;5.50;61.30
69628;DHT22;56850;51.984;5.088;2023-02-28T01:30:32;5.50;61.30
69628;DHT22;56850;51.984;5.088;2023-02-28T01:32:59;5.50;61.30
69628;DHT22;56850;51.984;5.088;2023-02-28T01:35:27;5.50;61.40
69628;DHT22;56850;51.984;5.088;2023-02-28T01:37:54;5.50;61.50
69628;DHT22;56850;51.984;5.088;2023-02-28T01:40:22;5.50;61.60
69628;DHT22;56850;51.984;5.088;2023-02-28T01:42:48;5.50;61.60
69628;DHT22;56850;51.984;5.088;2023-02-28T01:45:26;5.50;61.70
69628;DHT22;56850;51.984;5.088;2023-02-28T01:48:03;5.50;61.80
69628;DHT22;56850;51.984;5.088;2023-02-28T01:50:34;5.50;61.80
69628;DHT22;56850;51.984;5.088;2023-02-28T01:53:06;5.50;61.90
69628;DHT22;56850;51.984;5.088;2023-02-28T01:55:35;5.50;61.90
69628;DHT22;56850;51.984;5.088;2023-02-28T01:58:04;5.50;61.90
69628;DHT22;56850;51.984;5.088;2023-02-28T02:00:32;5.50;61.90
69628;DHT22;56850;51.984;5.088;2023-02-28T02:03:05;5.60;61.90
69628;DHT22;56850;51.984;5.088;2023-02-28T02:05:36;5.60;62.00
69628;DHT22;56850;51.984;5.088;2023-02-28T02:08:10;5.60;62.00
69628;DHT22;56850;51.984;5.088;2023-02-28T02:10:43;5.60;62.00
69628;DHT22;56850;51.984;5.088;2023-02-28T02:16:04;5.70;62.00
69628;DHT22;56850;51.984;5.088;2023-02-28T02:25:25;5.70;62.00
69628;DHT22;56850;51.984;5.088;2023-02-28T02:30:33;5.70;62.00
69628;DHT22;56850;51.984;5.088;2023-02-28T02:35:56;5.70;62.00
69628;DHT22;56850;51.984;5.088;2023-02-28T02:44:11;5.60;62.00
69628;DHT22;56850;51.984;5.088;2023-02-28T02:46:42;5.70;62.00
69628;DHT22;56850;51.984;5.088;2023-02-28T02:49:14;5.70;61.90
69628;DHT22;56850;51.984;5.088;2023-02-28T02:51:42;5.70;61.90
69628;DHT22;56850;51.984;5.088;2023-02-28T02:54:12;5.70;62.00
69628;DHT22;56850;51.984;5.088;2023-02-28T02:56:45;5.70;62.00
69628;DHT22;56850;51.984;5.088;2023-02-28T02:59:16;5.60;62.00
69628;DHT22;56850;51.984;5.088;2023-02-28T03:01:55;5.60;62.10
69628;DHT22;56850;51.984;5.088;2023-02-28T03:04:25;5.60;62.10
69628;DHT22;56850;51.984;5.088;2023-02-28T03:06:53;5.60;62.10
69628;DHT22;56850;51.984;5.088;2023-02-28T03:09:25;5.70;62.10
69628;DHT22;56850;51.984;5.088;2023-02-28T03:11:54;5.60;62.20
69628;DHT22;56850;51.984;5.088;2023-02-28T03:14:55;5.70;62.20
69628;DHT22;56850;51.984;5.088;2023-02-28T03:17:41;5.60;62.30
69628;DHT22;56850;51.984;5.088;2023-02-28T03:20:32;5.60;62.40
69628;DHT22;56850;51.984;5.088;2023-02-28T03:23:15;5.60;62.40
69628;DHT22;56850;51.984;5.088;2023-02-28T03:28:41;5.60;62.50
69628;DHT22;56850;51.984;5.088;2023-02-28T03:31:27;5.60;62.50
69628;DHT22;56850;51.984;5.088;2023-02-28T03:34:04;5.70;62.50
69628;DHT22;56850;51.984;5.088;2023-02-28T03:36:38;5.60;62.60
69628;DHT22;56850;51.984;5.088;2023-02-28T03:42:26;5.60;62.70
69628;DHT22;56850;51.984;5.088;2023-02-28T03:44:57;5.60;62.70
69628;DHT22;56850;51.984;5.088;2023-02-28T03:47:37;5.70;62.70
69628;DHT22;56850;51.984;5.088;2023-02-28T03:52:56;5.70;62.80
69628;DHT22;56850;51.984;5.088;2023-02-28T03:55:48;5.70;62.90
69628;DHT22;56850;51.984;5.088;2023-02-28T04:01:14;5.70;63.00
69628;DHT22;56850;51.984;5.088;2023-02-28T04:03:42;5.60;62.90
69628;DHT22;56850;51.984;5.088;2023-02-28T04:06:16;5.60;63.10
69628;DHT22;56850;51.984;5.088;2023-02-28T04:08:44;5.60;63.10
69628;DHT22;56850;51.984;5.088;2023-02-28T04:11:21;5.60;63.20
69628;DHT22;56850;51.984;5.088;2023-02-28T04:13:49;5.60;63.30
69628;DHT22;56850;51.984;5.088;2023-02-28T04:16:16;5.60;63.30
69628;DHT22;56850;51.984;5.088;2023-02-28T04:19:00;5.60;63.40
69628;DHT22;56850;51.984;5.088;2023-02-28T04:21:34;5.60;63.40
69628;DHT22;56850;51.984;5.088;2023-02-28T04:24:02;5.60;63.40
69628;DHT22;56850;51.984;5.088;2023-02-28T04:26:34;5.60;63.50
69628;DHT22;56850;51.984;5.088;2023-02-28T04:29:03;5.60;63.60
69628;DHT22;56850;51.984;5.088;2023-02-28T04:31:30;5.60;63.60
69628;DHT22;56850;51.984;5.088;2023-02-28T04:33:57;5.60;63.50
69628;DHT22;56850;51.984;5.088;2023-02-28T04:36:24;5.60;63.60
69628;DHT22;56850;51.984;5.088;2023-02-28T04:38:51;5.50;63.50
69628;DHT22;56850;51.984;5.088;2023-02-28T04:41:19;5.60;63.60
69628;DHT22;56850;51.984;5.088;2023-02-28T04:43:46;5.50;63.40
69628;DHT22;56850;51.984;5.088;2023-02-28T04:46:14;5.50;63.40
69628;DHT22;56850;51.984;5.088;2023-02-28T04:48:41;5.50;63.00
69628;DHT22;56850;51.984;5.088;2023-02-28T04:51:10;5.40;62.80
69628;DHT22;56850;51.984;5.088;2023-02-28T04:53:39;5.40;62.70
69628;DHT22;56850;51.984;5.088;2023-02-28T04:56:07;5.40;62.60
69628;DHT22;56850;51.984;5.088;2023-02-28T04:58:34;5.40;62.40
69628;DHT22;56850;51.984;5.088;2023-02-28T05:01:05;5.40;62.20
69628;DHT22;56850;51.984;5.088;2023-02-28T05:03:40;5.40;61.90
69628;DHT22;56850;51.984;5.088;2023-02-28T05:06:10;5.40;61.70
69628;DHT22;56850;51.984;5.088;2023-02-28T05:08:38;5.40;61.60
69628;DHT22;56850;51.984;5.088;2023-02-28T05:11:11;5.40;61.50
69628;DHT22;56850;51.984;5.088;2023-02-28T05:13:41;5.30;61.40
69628;DHT22;56850;51.984;5.088;2023-02-28T05:16:08;5.30;61.20
69628;DHT22;56850;51.984;5.088;2023-02-28T05:18:35;5.30;61.00
69628;DHT22;56850;51.984;5.088;2023-02-28T05:21:02;5.30;60.90
69628;DHT22;56850;51.984;5.088;2023-02-28T05:23:29;5.20;60.90
69628;DHT22;56850;51.984;5.088;2023-02-28T05:25:56;5.20;60.90
69628;DHT22;56850;51.984;5.088;2023-02-28T05:28:23;5.20;60.90
69628;DHT22;56850;51.984;5.088;2023-02-28T05:30:50;5.20;61.00
69628;DHT22;56850;51.984;5.088;2023-02-28T05:33:17;5.10;61.10
69628;DHT22;56850;51.984;5.088;2023-02-28T05:35:44;5.10;61.40
69628;DHT22;56850;51.984;5.088;2023-02-28T05:38:11;5.00;61.60
69628;DHT22;56850;51.984;5.088;2023-02-28T05:40:39;4.90;61.80
69628;DHT22;56850;51.984;5.088;2023-02-28T05:43:10;4.90;62.00
69628;DHT22;56850;51.984;5.088;2023-02-28T05:45:37;4.90;62.20
69628;DHT22;56850;51.984;5.088;2023-02-28T05:48:04;4.90;62.40
69628;DHT22;56850;51.984;5.088;2023-02-28T05:50:31;4.90;62.50
69628;DHT22;56850;51.984;5.088;2023-02-28T05:52:58;4.90;62.60
69628;DHT22;56850;51.984;5.088;2023-02-28T05:55:24;4.80;62.80
69628;DHT22;56850;51.984;5.088;2023-02-28T05:57:51;4.80;62.90
69628;DHT22;56850;51.984;5.088;2023-02-28T06:00:18;4.80;63.00
69628;DHT22;56850;51.984;5.088;2023-02-28T06:02:45;4.80;63.20
69628;DHT22;56850;51.984;5.088;2023-02-28T06:05:17;4.80;63.10
69628;DHT22;56850;51.984;5.088;2023-02-28T06:07:44;4.80;63.10
69628;DHT22;56850;51.984;5.088;2023-02-28T06:10:11;4.80;63.30
69628;DHT22;56850;51.984;5.088;2023-02-28T06:12:39;4.80;63.40
69628;DHT22;56850;51.984;5.088;2023-02-28T06:15:06;4.80;63.40
69628;DHT22;56850;51.984;5.088;2023-02-28T06:17:33;4.80;63.40
69628;DHT22;56850;51.984;5.088;2023-02-28T06:19:59;4.80;63.60
69628;DHT22;56850;51.984;5.088;2023-02-28T06:22:26;4.80;63.70
69628;DHT22;56850;51.984;5.088;2023-02-28T06:24:53;4.80;63.80
69628;DHT22;56850;51.984;5.088;2023-02-28T06:27:23;4.90;63.90
69628;DHT22;56850;51.984;5.088;2023-02-28T06:29:53;4.80;63.90
69628;DHT22;56850;51.984;5.088;2023-02-28T06:32:21;4.80;64.00
69628;DHT22;56850;51.984;5.088;2023-02-28T06:34:49;4.80;64.20
69628;DHT22;56850;51.984;5.088;2023-02-28T06:37:17;4.80;64.20
69628;DHT22;56850;51.984;5.088;2023-02-28T06:39:45;4.80;64.20
69628;DHT22;56850;51.984;5.088;2023-02-28T06:42:11;4.80;64.30
69628;DHT22;56850;51.984;5.088;2023-02-28T06:44:38;4.80;64.30
69628;DHT22;56850;51.984;5.088;2023-02-28T06:47:06;4.80;64.60
69628;DHT22;56850;51.984;5.088;2023-02-28T06:49:34;4.80;64.60
69628;DHT22;56850;51.984;5.088;2023-02-28T06:52:02;4.80;64.70
69628;DHT22;56850;51.984;5.088;2023-02-28T06:54:29;4.80;64.70
69628;DHT22;56850;51.984;5.088;2023-02-28T06:56:57;4.80;65.00
69628;DHT22;56850;51.984;5.088;2023-02-28T06:59:24;4.80;65.10
69628;DHT22;56850;51.984;5.088;2023-02-28T07:01:52;4.80;65.20
69628;DHT22;56850;51.984;5.088;2023-02-28T07:04:19;4.80;65.30
69628;DHT22;56850;51.984;5.088;2023-02-28T07:06:46;4.70;65.50
69628;DHT22;56850;51.984;5.088;2023-02-28T07:09:12;4.60;65.70
69628;DHT22;56850;51.984;5.088;2023-02-28T07:11:40;4.60;65.90
69628;DHT22;56850;51.984;5.088;2023-02-28T07:14:08;4.60;66.10
69628;DHT22;56850;51.984;5.088;2023-02-28T07:16:35;4.60;66.30
69628;DHT22;56850;51.984;5.088;2023-02-28T07:19:02;4.60;66.40
69628;DHT22;56850;51.984;5.088;2023-02-28T07:21:29;4.60;66.40
69628;DHT22;56850;51.984;5.088;2023-02-28T07:24:00;4.70;66.50
69628;DHT22;56850;51.984;5.088;2023-02-28T07:26:35;4.70;66.50
69628;DHT22;56850;51.984;5.088;2023-02-28T07:29:02;4.60;66.40
69628;DHT22;56850;51.984;5.088;2023-02-28T07:31:29;4.60;66.60
69628;DHT22;56850;51.984;5.088;2023-02-28T07:33:57;4.50;66.90
69628;DHT22;56850;51.984;5.088;2023-02-28T07:36:26;4.50;67.10
69628;DHT22;56850;51.984;5.088;2023-02-28T07:38:54;4.50;67.20
69628;DHT22;56850;51.984;5.088;2023-02-28T07:41:24;4.60;67.30
69628;DHT22;56850;51.984;5.088;2023-02-28T07:43:54;4.60;67.30
69628;DHT22;56850;51.984;5.088;2023-02-28T07:46:26;4.70;67.40
69628;DHT22;56850;51.984;5.088;2023-02-28T07:48:56;4.80;67.30
69628;DHT22;56850;51.984;5.088;2023-02-28T07:51:26;4.80;67.40
69628;DHT22;56850;51.984;5.088;2023-02-28T07:53:53;4.80;67.40
69628;DHT22;56850;51.984;5.088;2023-02-28T07:56:20;4.90;67.40
69628;DHT22;56850;51.984;5.088;2023-02-28T07:58:47;4.90;67.30
69628;DHT22;56850;51.984;5.088;2023-02-28T08:01:14;5.00;67.20
69628;DHT22;56850;51.984;5.088;2023-02-28T08:03:41;5.00;67.20
69628;DHT22;56850;51.984;5.088;2023-02-28T08:06:16;5.00;67.20
69628;DHT22;56850;51.984;5.088;2023-02-28T08:08:43;5.10;67.20
69628;DHT22;56850;51.984;5.088;2023-02-28T08:11:11;5.10;67.20
69628;DHT22;56850;51.984;5.088;2023-02-28T08:13:38;5.10;67.10
69628;DHT22;56850;51.984;5.088;2023-02-28T08:16:05;5.10;67.00
69628;DHT22;56850;51.984;5.088;2023-02-28T08:18:33;5.10;67.10
69628;DHT22;56850;51.984;5.088;2023-02-28T08:21:06;5.10;67.10
69628;DHT22;56850;51.984;5.088;2023-02-28T08:23:33;5.20;67.10
69628;DHT22;56850;51.984;5.088;2023-02-28T08:26:00;5.20;67.20
69628;DHT22;56850;51.984;5.088;2023-02-28T08:28:27;5.20;67.20
69628;DHT22;56850;51.984;5.088;2023-02-28T08:30:54;5.30;67.20
69628;DHT22;56850;51.984;5.088;2023-02-28T08:33:22;5.30;67.30
69628;DHT22;56850;51.984;5.088;2023-02-28T08:35:54;5.40;67.20
69628;DHT22;56850;51.984;5.088;2023-02-28T08:38:22;5.30;67.10
69628;DHT22;56850;51.984;5.088;2023-02-28T08:40:56;5.40;67.00
69628;DHT22;56850;51.984;5.088;2023-02-28T08:43:27;5.40;66.90
69628;DHT22;56850;51.984;5.088;2023-02-28T08:45:55;5.40;66.70
69628;DHT22;56850;51.984;5.088;2023-02-28T08:48:26;5.40;66.50
69628;DHT22;56850;51.984;5.088;2023-02-28T08:50:59;5.40;66.40
69628;DHT22;56850;51.984;5.088;2023-02-28T08:53:33;5.40;66.30
69628;DHT22;56850;51.984;5.088;2023-02-28T08:56:03;5.40;66.20
69628;DHT22;56850;51.984;5.088;2023-02-28T08:58:31;5.40;66.10
69628;DHT22;56850;51.984;5.088;2023-02-28T09:00:58;5.40;66.00
69628;DHT22;56850;51.984;5.088;2023-02-28T09:03:25;5.40;65.90
69628;DHT22;56850;51.984;5.088;2023-02-28T09:05:58;5.40;65.80
69628;DHT22;56850;51.984;5.088;2023-02-28T09:08:27;5.40;65.60
69628;DHT22;56850;51.984;5.088;2023-02-28T09:10:55;5.40;65.50
69628;DHT22;56850;51.984;5.088;2023-02-28T09:13:26;5.40;65.40
69628;DHT22;56850;51.984;5.088;2023-02-28T09:15:56;5.40;65.30
69628;DHT22;56850;51.984;5.088;2023-02-28T09:18:24;5.50;65.20
69628;DHT22;56850;51.984;5.088;2023-02-28T09:20:51;5.50;65.00
69628;DHT22;56850;51.984;5.088;2023-02-28T09:23:18;5.50;64.80
69628;DHT22;56850;51.984;5.088;2023-02-28T09:25:48;5.60;64.70
69628;DHT22;56850;51.984;5.088;2023-02-28T09:28:16;5.70;64.30
69628;DHT22;56850;51.984;5.088;2023-02-28T09:30:49;5.70;63.90
69628;DHT22;56850;51.984;5.088;2023-02-28T09:33:17;5.70;63.40
69628;DHT22;56850;51.984;5.088;2023-02-28T09:35:48;5.70;62.70
69628;DHT22;56850;51.984;5.088;2023-02-28T09:38:15;5.80;62.30
69628;DHT22;56850;51.984;5.088;2023-02-28T09:40:50;5.90;62.20
69628;DHT22;56850;51.984;5.088;2023-02-28T09:43:20;5.90;61.50
69628;DHT22;56850;51.984;5.088;2023-02-28T09:45:52;6.00;60.80
69628;DHT22;56850;51.984;5.088;2023-02-28T09:48:29;6.10;60.40
69628;DHT22;56850;51.984;5.088;2023-02-28T09:51:15;6.10;58.90
69628;DHT22;56850;51.984;5.088;2023-02-28T09:53:50;6.20;58.80
69628;DHT22;56850;51.984;5.088;2023-02-28T09:56:40;6.30;58.20
69628;DHT22;56850;51.984;5.088;2023-02-28T10:04:58;6.40;55.40
69628;DHT22;56850;51.984;5.088;2023-02-28T10:10:02;6.50;53.80
69628;DHT22;56850;51.984;5.088;2023-02-28T10:12:32;6.60;53.30
69628;DHT22;56850;51.984;5.088;2023-02-28T10:14:59;6.70;52.80
69628;DHT22;56850;51.984;5.088;2023-02-28T10:17:39;6.90;52.60
69628;DHT22;56850;51.984;5.088;2023-02-28T10:20:23;7.00;52.10
69628;DHT22;56850;51.984;5.088;2023-02-28T10:23:04;7.00;51.40
69628;DHT22;56850;51.984;5.088;2023-02-28T10:25:36;7.10;51.30
69628;DHT22;56850;51.984;5.088;2023-02-28T10:28:12;7.10;50.40
69628;DHT22;56850;51.984;5.088;2023-02-28T10:30:50;7.10;50.60
69628;DHT22;56850;51.984;5.088;2023-02-28T10:33:23;7.10;50.30
69628;DHT22;56850;51.984;5.088;2023-02-28T10:35:51;7.20;49.90
69628;DHT22;56850;51.984;5.088;2023-02-28T10:38:27;7.20;49.60
69628;DHT22;56850;51.984;5.088;2023-02-28T10:43:31;7.30;49.00
69628;DHT22;56850;51.984;5.088;2023-02-28T10:48:39;7.60;48.40
69628;DHT22;56850;51.984;5.088;2023-02-28T10:51:18;7.60;47.60
69628;DHT22;56850;51.984;5.088;2023-02-28T10:53:51;7.60;47.20
69628;DHT22;56850;51.984;5.088;2023-02-28T10:56:27;7.70;46.90
69628;DHT22;56850;51.984;5.088;2023-02-28T11:09:35;9.10;44.00
69628;DHT22;56850;51.984;5.088;2023-02-28T11:12:05;9.30;43.90
69628;DHT22;56850;51.984;5.088;2023-02-28T11:14:39;9.50;43.50
69628;DHT22;56850;51.984;5.088;2023-02-28T11:17:21;9.60;43.00
69628;DHT22;56850;51.984;5.088;2023-02-28T11:19:52;9.70;42.60
69628;DHT22;56850;51.984;5.088;2023-02-28T11:22:26;9.70;41.80
69628;DHT22;56850;51.984;5.088;2023-02-28T11:24:58;9.80;41.60
69628;DHT22;56850;51.984;5.088;2023-02-28T11:30:01;10.00;41.10
69628;DHT22;56850;51.984;5.088;2023-02-28T11:32:30;10.10;40.80
69628;DHT22;56850;51.984;5.088;2023-02-28T11:35:12;10.20;40.00
69628;DHT22;56850;51.984;5.088;2023-02-28T11:37:43;10.30;39.90
69628;DHT22;56850;51.984;5.088;2023-02-28T11:40:21;10.40;40.00
69628;DHT22;56850;51.984;5.088;2023-02-28T11:43:10;10.50;39.60
69628;DHT22;56850;51.984;5.088;2023-02-28T11:48:39;10.70;39.20
69628;DHT22;56850;51.984;5.088;2023-02-28T11:54:01;10.90;38.80
69628;DHT22;56850;51.984;5.088;2023-02-28T11:59:19;11.10;38.60
69628;DHT22;56850;51.984;5.088;2023-02-28T12:08:06;11.40;37.90
69628;DHT22;56850;51.984;5.088;2023-02-28T12:23:57;11.80;36.50
69628;DHT22;56850;51.984;5.088;2023-02-28T12:26:37;11.80;36.60
69628;DHT22;56850;51.984;5.088;2023-02-28T12:29:28;11.90;36.60
69628;DHT22;56850;51.984;5.088;2023-02-28T12:32:06;12.00;36.50
69628;DHT22;56850;51.984;5.088;2023-02-28T12:34:41;12.00;36.40
69628;DHT22;56850;51.984;5.088;2023-02-28T12:37:14;12.20;36.50
69628;DHT22;56850;51.984;5.088;2023-02-28T12:39:50;12.20;36.20
69628;DHT22;56850;51.984;5.088;2023-02-28T12:42:28;12.30;36.20
69628;DHT22;56850;51.984;5.088;2023-02-28T12:45:03;12.40;36.30
69628;DHT22;56850;51.984;5.088;2023-02-28T12:47:31;12.50;36.30
69628;DHT22;56850;51.984;5.088;2023-02-28T12:50:09;12.60;35.40
69628;DHT22;56850;51.984;5.088;2023-02-28T12:52:57;12.60;35.30
69628;DHT22;56850;51.984;5.088;2023-02-28T12:58:14;12.50;34.70
69628;DHT22;56850;51.984;5.088;2023-02-28T13:09:12;12.60;35.30
69628;DHT22;56850;51.984;5.088;2023-02-28T13:11:46;12.80;35.10
69628;DHT22;56850;51.984;5.088;2023-02-28T13:19:45;13.10;34.70
69628;DHT22;56850;51.984;5.088;2023-02-28T13:27:54;13.30;33.80
69628;DHT22;56850;51.984;5.088;2023-02-28T13:33:37;13.50;33.70
69628;DHT22;56850;51.984;5.088;2023-02-28T13:36:29;13.40;33.70
69628;DHT22;56850;51.984;5.088;2023-02-28T13:39:02;13.50;33.90
69628;DHT22;56850;51.984;5.088;2023-02-28T13:44:20;13.50;34.30
69628;DHT22;56850;51.984;5.088;2023-02-28T13:47:18;13.50;33.80
69628;DHT22;56850;51.984;5.088;2023-02-28T13:49:46;13.60;33.50
69628;DHT22;56850;51.984;5.088;2023-02-28T13:52:18;13.60;33.20
69628;DHT22;56850;51.984;5.088;2023-02-28T14:01:00;13.60;34.50
69628;DHT22;56850;51.984;5.088;2023-02-28T14:03:41;13.70;34.60
69628;DHT22;56850;51.984;5.088;2023-02-28T14:06:32;13.70;34.30
69628;DHT22;56850;51.984;5.088;2023-02-28T14:09:24;13.70;34.50
69628;DHT22;56850;51.984;5.088;2023-02-28T14:11:52;13.60;34.20
69628;DHT22;56850;51.984;5.088;2023-02-28T14:17:22;13.70;34.80
69628;DHT22;56850;51.984;5.088;2023-02-28T14:19:53;13.70;35.00
69628;DHT22;56850;51.984;5.088;2023-02-28T14:22:43;13.70;34.40
69628;DHT22;56850;51.984;5.088;2023-02-28T14:25:22;13.60;34.20
69628;DHT22;56850;51.984;5.088;2023-02-28T14:28:16;13.60;34.00
69628;DHT22;56850;51.984;5.088;2023-02-28T14:31:09;13.50;33.30
69628;DHT22;56850;51.984;5.088;2023-02-28T14:33:54;13.40;33.10
69628;DHT22;56850;51.984;5.088;2023-02-28T14:36:30;13.30;34.30
69628;DHT22;56850;51.984;5.088;2023-02-28T14:39:04;13.30;33.90
69628;DHT22;56850;51.984;5.088;2023-02-28T14:41:37;13.30;34.10
69628;DHT22;56850;51.984;5.088;2023-02-28T14:44:20;13.30;34.10
69628;DHT22;56850;51.984;5.088;2023-02-28T14:46:50;13.20;33.60
69628;DHT22;56850;51.984;5.088;2023-02-28T14:52:11;13.10;33.80
69628;DHT22;56850;51.984;5.088;2023-02-28T14:54:42;13.10;33.10
69628;DHT22;56850;51.984;5.088;2023-02-28T14:57:30;13.10;33.50
69628;DHT22;56850;51.984;5.088;2023-02-28T15:02:34;13.10;33.80
69628;DHT22;56850;51.984;5.088;2023-02-28T15:05:28;13.00;33.00
69628;DHT22;56850;51.984;5.088;2023-02-28T15:08:14;13.00;32.90
69628;DHT22;56850;51.984;5.088;2023-02-28T15:11:00;12.80;32.80
69628;DHT22;56850;51.984;5.088;2023-02-28T15:13:37;12.80;33.20
69628;DHT22;56850;51.984;5.088;2023-02-28T15:16:19;12.70;33.20
69628;DHT22;56850;51.984;5.088;2023-02-28T15:18:50;12.80;33.70
69628;DHT22;56850;51.984;5.088;2023-02-28T15:21:26;12.90;33.80
69628;DHT22;56850;51.984;5.088;2023-02-28T15:23:54;12.80;33.00
69628;DHT22;56850;51.984;5.088;2023-02-28T15:26:27;12.80;32.90
69628;DHT22;56850;51.984;5.088;2023-02-28T15:29:01;12.70;32.90
69628;DHT22;56850;51.984;5.088;2023-02-28T15:31:31;12.60;32.70
69628;DHT22;56850;51.984;5.088;2023-02-28T15:34:58;12.60;32.50
69628;DHT22;56850;51.984;5.088;2023-02-28T15:37:40;12.40;32.20
69628;DHT22;56850;51.984;5.088;2023-02-28T15:40:25;12.30;32.20
69628;DHT22;56850;51.984;5.088;2023-02-28T15:43:07;12.30;32.40
69628;DHT22;56850;51.984;5.088;2023-02-28T15:45:44;12.30;32.30
69628;DHT22;56850;51.984;5.088;2023-02-28T15:48:29;12.20;32.40
69628;DHT22;56850;51.984;5.088;2023-02-28T15:51:08;12.30;32.80
69628;DHT22;56850;51.984;5.088;2023-02-28T15:54:06;12.20;32.70
69628;DHT22;56850;51.984;5.088;2023-02-28T15:56:39;12.10;32.60
69628;DHT22;56850;51.984;5.088;2023-02-28T15:59:16;12.00;32.70
69628;DHT22;56850;51.984;5.088;2023-02-28T16:01:44;11.90;32.50
69628;DHT22;56850;51.984;5.088;2023-02-28T16:04:17;11.80;32.60
69628;DHT22;56850;51.984;5.088;2023-02-28T16:09:24;11.80;33.10
69628;DHT22;56850;51.984;5.088;2023-02-28T16:11:54;11.80;33.10
69628;DHT22;56850;51.984;5.088;2023-02-28T16:14:26;11.70;33.00
69628;DHT22;56850;51.984;5.088;2023-02-28T16:16:56;11.70;33.30
69628;DHT22;56850;51.984;5.088;2023-02-28T16:19:23;11.70;33.30
69628;DHT22;56850;51.984;5.088;2023-02-28T16:21:50;11.70;33.60
69628;DHT22;56850;51.984;5.088;2023-02-28T16:24:18;11.70;33.60
69628;DHT22;56850;51.984;5.088;2023-02-28T16:26:46;11.60;33.40
69628;DHT22;56850;51.984;5.088;2023-02-28T16:29:23;11.50;33.10
69628;DHT22;56850;51.984;5.088;2023-02-28T16:31:51;11.40;33.00
69628;DHT22;56850;51.984;5.088;2023-02-28T16:34:18;11.30;33.10
69628;DHT22;56850;51.984;5.088;2023-02-28T16:36:49;11.20;33.30
69628;DHT22;56850;51.984;5.088;2023-02-28T16:39:16;11.20;33.30
69628;DHT22;56850;51.984;5.088;2023-02-28T16:41:44;11.10;33.60
69628;DHT22;56850;51.984;5.088;2023-02-28T16:44:20;11.10;33.90
69628;DHT22;56850;51.984;5.088;2023-02-28T16:46:48;11.00;34.20
69628;DHT22;56850;51.984;5.088;2023-02-28T16:49:15;11.00;34.20
69628;DHT22;56850;51.984;5.088;2023-02-28T16:51:41;11.00;34.30
69628;DHT22;56850;51.984;5.088;2023-02-28T16:54:09;11.00;34.50
69628;DHT22;56850;51.984;5.088;2023-02-28T16:56:39;10.90;34.60
69628;DHT22;56850;51.984;5.088;2023-02-28T16:59:10;10.80;34.80
69628;DHT22;56850;51.984;5.088;2023-02-28T17:01:38;10.70;34.90
69628;DHT22;56850;51.984;5.088;2023-02-28T17:04:05;10.70;34.90
69628;DHT22;56850;51.984;5.088;2023-02-28T17:06:32;10.50;35.10
69628;DHT22;56850;51.984;5.088;2023-02-28T17:08:59;10.40;35.10
69628;DHT22;56850;51.984;5.088;2023-02-28T17:11:26;10.40;35.30
69628;DHT22;56850;51.984;5.088;2023-02-28T17:13:54;10.30;35.30
69628;DHT22;56850;51.984;5.088;2023-02-28T17:16:39;10.20;35.60
69628;DHT22;56850;51.984;5.088;2023-02-28T17:19:15;10.10;35.60
69628;DHT22;56850;51.984;5.088;2023-02-28T17:21:42;10.00;35.70
69628;DHT22;56850;51.984;5.088;2023-02-28T17:24:11;10.00;35.80
69628;DHT22;56850;51.984;5.088;2023-02-28T17:26:55;9.90;36.00
69628;DHT22;56850;51.984;5.088;2023-02-28T17:29:22;9.80;36.00
69628;DHT22;56850;51.984;5.088;2023-02-28T17:31:51;9.70;36.10
69628;DHT22;56850;51.984;5.088;2023-02-28T17:34:18;9.60;36.10
69628;DHT22;56850;51.984;5.088;2023-02-28T17:36:48;9.50;36.40
69628;DHT22;56850;51.984;5.088;2023-02-28T17:39:16;9.50;36.50
69628;DHT22;56850;51.984;5.088;2023-02-28T17:41:51;9.50;36.70
69628;DHT22;56850;51.984;5.088;2023-02-28T17:44:19;9.40;36.90
69628;DHT22;56850;51.984;5.088;2023-02-28T17:46:46;9.40;36.90
69628;DHT22;56850;51.984;5.088;2023-02-28T17:49:14;9.40;36.90
69628;DHT22;56850;51.984;5.088;2023-02-28T17:51:41;9.30;36.90
69628;DHT22;56850;51.984;5.088;2023-02-28T17:54:08;9.30;36.80
69628;DHT22;56850;51.984;5.088;2023-02-28T17:56:35;9.20;36.80
69628;DHT22;56850;51.984;5.088;2023-02-28T17:59:03;9.20;36.90
69628;DHT22;56850;51.984;5.088;2023-02-28T18:01:29;9.20;37.10
69628;DHT22;56850;51.984;5.088;2023-02-28T18:03:56;9.20;37.10
69628;DHT22;56850;51.984;5.088;2023-02-28T18:06:44;9.10;37.30
69628;DHT22;56850;51.984;5.088;2023-02-28T18:09:19;9.10;37.40
69628;DHT22;56850;51.984;5.088;2023-02-28T18:11:54;9.10;37.50
69628;DHT22;56850;51.984;5.088;2023-02-28T18:14:23;9.10;37.40
69628;DHT22;56850;51.984;5.088;2023-02-28T18:16:52;9.00;37.50
69628;DHT22;56850;51.984;5.088;2023-02-28T18:19:19;9.00;37.30
69628;DHT22;56850;51.984;5.088;2023-02-28T18:21:49;8.90;37.40
69628;DHT22;56850;51.984;5.088;2023-02-28T18:24:18;8.90;37.50